createdAt,value
2018-05-18T00:00:59.457Z,5.00
2018-05-18T00:03:27.711Z,6.03
2018-05-18T00:05:55.990Z,5.17
2018-05-18T00:08:25.014Z,4.80
2018-05-18T00:10:53.343Z,5.60
2018-05-18T00:13:22.429Z,4.80
2018-05-18T00:15:51.482Z,5.53
2018-05-18T00:18:19.779Z,6.50
2018-05-18T00:20:48.043Z,5.47
2018-05-18T00:23:16.330Z,5.87
2018-05-18T00:25:44.637Z,6.03
2018-05-18T00:28:13.013Z,5.83
2018-05-18T00:30:41.370Z,5.40
2018-05-18T00:33:09.669Z,5.30
2018-05-18T00:35:37.962Z,4.97
2018-05-18T00:38:06.226Z,4.70
2018-05-18T00:40:34.715Z,5.43
2018-05-18T00:43:02.966Z,5.57
2018-05-18T00:45:32.170Z,5.20
2018-05-18T00:48:01.292Z,5.07
2018-05-18T00:50:29.634Z,5.07
2018-05-18T00:52:57.892Z,5.10
2018-05-18T00:55:41.196Z,5.27
2018-05-18T00:58:09.660Z,5.10
2018-05-18T01:00:37.938Z,5.63
2018-05-18T01:03:06.436Z,5.97
2018-05-18T01:05:34.780Z,4.90
2018-05-18T01:08:03.035Z,5.10
2018-05-18T01:10:32.133Z,5.03
2018-05-18T01:13:00.390Z,5.43
2018-05-18T01:15:29.406Z,5.70
2018-05-18T01:17:57.737Z,4.70
2018-05-18T01:20:25.987Z,5.47
2018-05-18T01:22:54.364Z,5.20
2018-05-18T01:25:22.726Z,5.03
2018-05-18T01:27:51.005Z,5.60
2018-05-18T01:30:19.401Z,5.37
2018-05-18T01:32:47.698Z,5.40
2018-05-18T01:35:15.976Z,5.97
2018-05-18T01:37:45.025Z,5.07
2018-05-18T01:40:13.278Z,4.90
2018-05-18T01:42:41.521Z,5.40
2018-05-18T01:45:09.874Z,5.40
2018-05-18T01:47:38.109Z,5.50
2018-05-18T01:50:06.537Z,5.03
2018-05-18T01:52:36.345Z,5.20
2018-05-18T01:55:04.589Z,5.30
2018-05-18T01:57:32.874Z,4.77
2018-05-18T02:00:01.238Z,4.80
2018-05-18T02:02:29.507Z,4.80
2018-05-18T02:04:57.775Z,5.00
2018-05-18T02:07:26.057Z,5.03
2018-05-18T02:09:54.318Z,5.07
2018-05-18T02:12:22.595Z,5.33
2018-05-18T02:14:50.866Z,4.77
2018-05-18T02:17:19.129Z,5.47
2018-05-18T02:19:48.167Z,4.20
2018-05-18T02:22:16.551Z,4.77
2018-05-18T02:24:44.882Z,4.93
2018-05-18T02:27:13.226Z,5.13
2018-05-18T02:29:41.493Z,4.30
2018-05-18T02:32:09.748Z,3.83
2018-05-18T02:34:38.038Z,4.13
2018-05-18T02:37:06.318Z,4.50
2018-05-18T02:39:34.661Z,4.70
2018-05-18T02:42:02.949Z,4.30
2018-05-18T02:44:31.206Z,4.67
2018-05-18T02:46:59.482Z,4.57
2018-05-18T02:49:27.730Z,4.57
2018-05-18T02:51:56.840Z,4.43
2018-05-18T02:54:25.161Z,4.73
2018-05-18T02:56:53.410Z,4.60
2018-05-18T02:59:21.673Z,4.43
2018-05-18T03:01:50.145Z,4.70
2018-05-18T03:04:18.435Z,4.73
2018-05-18T03:06:46.736Z,5.50
2018-05-18T03:09:15.018Z,5.30
2018-05-18T03:11:43.278Z,4.27
2018-05-18T03:14:11.541Z,4.20
2018-05-18T03:16:39.817Z,4.57
2018-05-18T03:19:08.062Z,4.90
2018-05-18T03:21:36.374Z,4.53
2018-05-18T03:24:04.638Z,4.53
2018-05-18T03:26:32.916Z,4.07
2018-05-18T03:29:02.731Z,4.20
2018-05-18T03:31:31.244Z,3.90
2018-05-18T03:33:59.493Z,4.60
2018-05-18T03:36:27.786Z,4.80
2018-05-18T03:38:56.061Z,5.43
2018-05-18T03:41:24.447Z,4.07
2018-05-18T03:43:52.729Z,3.97
2018-05-18T03:46:21.765Z,4.47
2018-05-18T03:48:50.039Z,5.53
2018-05-18T03:51:18.427Z,4.13
2018-05-18T03:53:46.720Z,5.30
2018-05-18T03:56:14.970Z,4.57
2018-05-18T03:58:43.261Z,5.80
2018-05-18T04:04:22.578Z,4.63
2018-05-18T04:07:02.793Z,4.70
2018-05-18T04:09:31.056Z,4.47
2018-05-18T04:11:59.321Z,4.87
2018-05-18T04:14:27.602Z,4.50
2018-05-18T04:16:55.873Z,4.40
2018-05-18T04:19:24.157Z,4.53
2018-05-18T04:21:52.472Z,4.60
2018-05-18T04:24:20.819Z,4.63
2018-05-18T04:26:49.079Z,4.10
2018-05-18T04:29:17.422Z,4.63
2018-05-18T04:31:46.433Z,4.53
2018-05-18T04:34:14.718Z,4.93
2018-05-18T04:36:43.077Z,4.97
2018-05-18T04:39:11.386Z,3.97
2018-05-18T04:41:39.665Z,3.73
2018-05-18T04:44:07.951Z,4.33
2018-05-18T04:46:36.297Z,4.90
2018-05-18T04:49:04.569Z,4.50
2018-05-18T04:51:32.884Z,4.20
2018-05-18T04:54:01.252Z,4.17
2018-05-18T04:56:30.327Z,3.90
2018-05-18T04:58:58.684Z,4.10
2018-05-18T05:01:26.883Z,4.67
2018-05-18T05:03:55.864Z,3.83
2018-05-18T05:06:24.330Z,4.50
2018-05-18T05:08:52.601Z,4.20
2018-05-18T05:11:20.889Z,3.93
2018-05-18T05:13:49.161Z,3.93
2018-05-18T05:16:17.449Z,4.33
2018-05-18T05:18:45.709Z,4.13
2018-05-18T05:21:14.053Z,4.57
2018-05-18T05:23:43.131Z,4.20
2018-05-18T05:26:11.398Z,3.97
2018-05-18T05:28:39.659Z,4.67
2018-05-18T05:31:07.934Z,4.50
2018-05-18T05:33:36.236Z,3.47
2018-05-18T05:36:04.622Z,4.47
2018-05-18T05:38:32.911Z,4.47
2018-05-18T05:41:01.218Z,4.13
2018-05-18T05:43:29.498Z,4.80
2018-05-18T05:46:05.577Z,4.73
2018-05-18T05:48:44.458Z,4.03
2018-05-18T05:51:16.017Z,4.97
2018-05-18T05:53:44.394Z,4.40
2018-05-18T05:56:12.649Z,5.70
2018-05-18T05:58:40.920Z,3.83
2018-05-18T06:01:09.174Z,4.73
2018-05-18T06:03:37.464Z,4.57
2018-05-18T06:06:05.921Z,3.83
2018-05-18T06:08:34.957Z,4.50
2018-05-18T06:11:03.231Z,4.27
2018-05-18T06:13:31.523Z,3.77
2018-05-18T06:15:59.786Z,4.37
2018-05-18T06:18:28.086Z,5.37
2018-05-18T06:20:56.374Z,4.20
2018-05-18T06:23:24.651Z,4.57
2018-05-18T06:25:52.963Z,4.67
2018-05-18T06:28:21.214Z,7.57
2018-05-18T06:30:50.313Z,5.87
2018-05-18T06:33:19.429Z,5.00
2018-05-18T06:35:47.733Z,5.20
2018-05-18T06:38:16.074Z,4.53
2018-05-18T06:40:45.224Z,4.47
2018-05-18T06:43:13.490Z,4.50
2018-05-18T06:45:41.771Z,5.43
2018-05-18T06:48:10.042Z,4.60
2018-05-18T06:50:38.393Z,4.33
2018-05-18T06:53:06.714Z,5.30
2018-05-18T06:55:35.000Z,4.47
2018-05-18T06:58:03.345Z,4.37
2018-05-18T07:00:31.615Z,4.73
2018-05-18T07:02:59.889Z,4.53
2018-05-18T07:05:28.144Z,4.17
2018-05-18T07:07:56.434Z,4.43
2018-05-18T07:10:24.781Z,4.63
2018-05-18T07:12:53.046Z,5.17
2018-05-18T07:15:22.062Z,4.50
2018-05-18T07:17:50.346Z,4.30
2018-05-18T07:20:18.626Z,4.57
2018-05-18T07:22:46.902Z,5.57
2018-05-18T07:25:15.988Z,5.40
2018-05-18T07:27:44.278Z,4.50
2018-05-18T07:30:12.779Z,5.50
2018-05-18T07:32:41.072Z,4.90
2018-05-18T07:35:10.214Z,5.20
2018-05-18T07:37:38.523Z,4.77
2018-05-18T07:40:06.742Z,5.60
2018-05-18T07:42:35.009Z,5.30
2018-05-18T07:45:03.293Z,5.10
2018-05-18T07:47:32.368Z,5.20
2018-05-18T07:50:01.415Z,5.23
2018-05-18T07:52:29.688Z,4.97
2018-05-18T07:54:57.946Z,4.97
2018-05-18T07:57:26.290Z,5.07
2018-05-18T07:59:55.358Z,5.43
2018-05-18T08:02:23.697Z,5.67
2018-05-18T08:04:52.005Z,5.80
2018-05-18T08:07:21.057Z,5.10
2018-05-18T08:09:49.358Z,5.27
2018-05-18T08:12:17.643Z,5.57
2018-05-18T08:14:45.942Z,5.53
2018-05-18T08:17:15.126Z,5.00
2018-05-18T08:19:43.389Z,4.97
2018-05-18T08:22:11.664Z,5.40
2018-05-18T08:24:39.942Z,4.77
2018-05-18T08:27:19.012Z,5.77
2018-05-18T08:29:47.308Z,5.37
2018-05-18T08:32:15.542Z,4.97
2018-05-18T08:34:44.010Z,4.93
2018-05-18T08:37:12.285Z,5.30
2018-05-18T08:39:40.604Z,5.40
2018-05-18T08:42:09.594Z,5.57
2018-05-18T08:44:38.629Z,4.60
2018-05-18T08:47:06.893Z,5.37
2018-05-18T08:49:35.189Z,5.27
2018-05-18T08:52:03.475Z,5.57
2018-05-18T08:54:31.796Z,4.90
2018-05-18T08:57:00.173Z,4.87
2018-05-18T08:59:28.491Z,5.30
2018-05-18T09:01:56.772Z,4.90
2018-05-18T09:04:25.023Z,5.13
2018-05-18T09:06:53.396Z,5.03
2018-05-18T09:09:21.650Z,5.37
2018-05-18T09:11:49.922Z,4.97
2018-05-18T09:14:18.185Z,5.20
2018-05-18T09:16:46.546Z,4.17
2018-05-18T09:19:14.759Z,4.30
2018-05-18T09:21:43.109Z,3.97
2018-05-18T09:24:12.122Z,4.60
2018-05-18T09:26:40.455Z,4.63
2018-05-18T09:29:08.788Z,4.30
2018-05-18T09:31:37.079Z,5.20
2018-05-18T09:34:05.396Z,4.33
2018-05-18T09:36:33.625Z,4.40
2018-05-18T09:39:14.223Z,4.10
2018-05-18T09:41:42.511Z,4.97
2018-05-18T09:44:11.550Z,5.23
2018-05-18T09:46:39.832Z,5.30
2018-05-18T09:49:08.201Z,4.43
2018-05-18T09:51:36.490Z,4.20
2018-05-18T09:54:04.804Z,4.07
2018-05-18T09:56:33.273Z,4.90
2018-05-18T09:59:02.346Z,4.63
2018-05-18T10:01:30.682Z,5.40
2018-05-18T10:03:58.977Z,3.60
2018-05-18T10:06:27.254Z,4.93
2018-05-18T10:08:55.626Z,5.63
2018-05-18T10:11:24.035Z,4.87
2018-05-18T10:13:52.323Z,4.83
2018-05-18T10:16:20.560Z,4.77
2018-05-18T10:19:00.653Z,5.00
2018-05-18T10:24:15.047Z,4.90
2018-05-18T10:26:44.062Z,5.80
2018-05-18T10:29:13.825Z,4.60
2018-05-18T10:31:42.873Z,5.18
2018-05-18T10:34:11.149Z,5.13
2018-05-18T10:36:42.554Z,5.07
2018-05-18T10:39:12.690Z,4.30
2018-05-18T10:41:41.004Z,4.82
2018-05-18T10:44:10.219Z,4.83
2018-05-18T10:46:38.653Z,5.53
2018-05-18T10:49:07.069Z,4.90
2018-05-18T10:51:35.374Z,4.97
2018-05-18T10:54:04.422Z,5.20
2018-05-18T10:56:32.762Z,5.10
2018-05-18T10:59:01.029Z,4.27
2018-05-18T11:01:29.353Z,5.07
2018-05-18T11:03:57.583Z,4.37
2018-05-18T11:06:25.854Z,5.13
2018-05-18T11:08:54.770Z,4.73
2018-05-18T11:11:23.061Z,5.40
2018-05-18T11:13:51.365Z,5.17
2018-05-18T11:16:20.594Z,4.97
2018-05-18T11:18:50.213Z,4.97
2018-05-18T11:21:19.763Z,4.70
2018-05-18T11:23:48.071Z,5.00
2018-05-18T11:26:17.167Z,5.40
2018-05-18T11:28:45.410Z,6.03
2018-05-18T11:31:13.663Z,5.30
2018-05-18T11:33:41.948Z,5.30
2018-05-18T11:36:10.223Z,5.20
2018-05-18T11:38:38.502Z,5.30
2018-05-18T11:43:54.008Z,5.67
2018-05-18T11:46:25.648Z,4.77
2018-05-18T11:49:04.041Z,5.13
2018-05-18T11:51:33.349Z,5.97
2018-05-18T11:54:08.322Z,5.07
2018-05-18T11:56:38.683Z,4.77
2018-05-18T11:59:06.955Z,5.27
2018-05-18T12:01:35.213Z,5.90
2018-05-18T12:04:10.709Z,5.33
2018-05-18T12:06:39.793Z,5.13
2018-05-18T12:09:08.278Z,5.33
2018-05-18T12:11:36.593Z,4.97
2018-05-18T12:14:05.651Z,5.37
2018-05-18T12:16:33.945Z,6.13
2018-05-18T12:19:03.023Z,6.07
2018-05-18T12:21:31.295Z,5.67
2018-05-18T12:23:59.557Z,5.57
2018-05-18T12:26:27.829Z,4.90
2018-05-18T12:28:56.115Z,5.73
2018-05-18T12:31:24.747Z,4.30
2018-05-18T12:33:53.108Z,5.33
2018-05-18T12:36:21.392Z,5.87
2018-05-18T12:38:50.440Z,6.60
2018-05-18T12:41:18.807Z,5.37
2018-05-18T12:43:47.092Z,6.23
2018-05-18T12:46:16.271Z,6.27
2018-05-18T12:48:44.569Z,5.47
2018-05-18T12:51:12.860Z,6.07
2018-05-18T12:53:41.124Z,5.43
2018-05-18T12:56:09.396Z,5.77
2018-05-18T12:58:37.693Z,5.30
2018-05-18T13:01:06.007Z,4.93
2018-05-18T13:03:35.019Z,6.50
2018-05-18T13:06:03.274Z,5.83
2018-05-18T13:08:31.532Z,4.27
2018-05-18T13:11:00.575Z,5.50
2018-05-18T13:13:28.852Z,5.40
2018-05-18T13:15:57.222Z,6.33
2018-05-18T13:18:25.499Z,6.07
2018-05-18T13:20:53.768Z,8.63
2018-05-18T13:23:22.062Z,7.23
2018-05-18T13:25:50.342Z,7.77
2018-05-18T13:28:18.693Z,7.63
2018-05-18T13:30:46.960Z,7.80
2018-05-18T13:33:15.231Z,10.57
2018-05-18T13:35:43.493Z,9.37
2018-05-18T13:38:11.792Z,8.67
2018-05-18T13:40:40.047Z,5.43
2018-05-18T13:43:08.334Z,7.40
2018-05-18T13:45:36.603Z,7.17
2018-05-18T13:48:04.882Z,6.27
2018-05-18T13:50:33.303Z,5.13
2018-05-18T13:53:01.587Z,6.13
2018-05-18T13:55:30.018Z,7.77
2018-05-18T13:57:58.322Z,6.10
2018-05-18T14:00:26.586Z,6.03
2018-05-18T14:03:02.603Z,6.35
2018-05-18T14:05:40.628Z,6.67
2018-05-18T14:08:08.901Z,5.67
2018-05-18T14:10:39.573Z,6.57
2018-05-18T14:13:18.301Z,6.40
2018-05-18T14:15:46.560Z,6.43
2018-05-18T14:18:14.819Z,8.07
2018-05-18T14:20:43.125Z,9.77
2018-05-18T14:23:11.384Z,9.03
2018-05-18T14:25:39.731Z,7.97
2018-05-18T14:28:08.006Z,6.97
2018-05-18T14:30:36.337Z,7.40
2018-05-18T14:33:04.971Z,7.13
2018-05-18T14:35:39.989Z,7.47
2018-05-18T14:38:13.241Z,7.90
2018-05-18T14:40:43.047Z,6.43
2018-05-18T14:43:12.954Z,6.30
2018-05-18T14:45:42.265Z,5.87
2018-05-18T14:48:10.626Z,5.30
2018-05-18T14:50:39.120Z,5.60
2018-05-18T14:53:07.380Z,6.13
2018-05-18T14:55:35.666Z,5.60
2018-05-18T14:58:03.931Z,5.80
2018-05-18T15:00:33.699Z,5.70
2018-05-18T15:03:01.976Z,5.37
2018-05-18T15:05:30.271Z,6.63
2018-05-18T15:07:58.666Z,5.87
2018-05-18T15:10:27.849Z,5.63
2018-05-18T15:12:57.083Z,5.17
2018-05-18T15:15:26.123Z,5.53
2018-05-18T15:17:54.461Z,5.60
2018-05-18T15:20:23.481Z,5.60
2018-05-18T15:22:51.766Z,5.03
2018-05-18T15:25:20.041Z,5.30
2018-05-18T15:27:48.601Z,5.23
2018-05-18T15:30:17.094Z,6.33
2018-05-18T15:32:45.360Z,5.70
2018-05-18T15:35:13.629Z,5.70
2018-05-18T15:37:42.091Z,5.27
2018-05-18T15:40:10.405Z,4.60
2018-05-18T15:42:38.726Z,5.40
2018-05-18T15:45:07.077Z,5.53
2018-05-18T15:47:35.365Z,4.97
2018-05-18T15:50:03.638Z,5.20
2018-05-18T15:52:31.906Z,5.37
2018-05-18T15:55:00.214Z,5.40
2018-05-18T15:57:28.561Z,4.90
2018-05-18T15:59:57.580Z,4.73
2018-05-18T16:02:25.851Z,4.97
2018-05-18T16:04:54.145Z,4.83
2018-05-18T16:07:23.209Z,5.07
2018-05-18T16:09:51.501Z,4.93
2018-05-18T16:12:19.859Z,4.90
2018-05-18T16:14:48.110Z,5.27
2018-05-18T16:17:17.606Z,5.00
2018-05-18T16:19:46.106Z,4.80
2018-05-18T16:22:14.496Z,5.23
2018-05-18T16:24:42.761Z,4.87
2018-05-18T16:27:11.085Z,5.37
2018-05-18T16:29:40.221Z,5.20
2018-05-18T16:32:12.669Z,5.10
2018-05-18T16:34:42.667Z,4.70
2018-05-18T16:37:11.755Z,4.50
2018-05-18T16:39:40.801Z,4.97
2018-05-18T16:42:09.110Z,5.10
2018-05-18T16:44:37.365Z,4.63
2018-05-18T16:47:06.561Z,5.23
2018-05-18T16:49:34.967Z,5.07
2018-05-18T16:52:09.638Z,5.40
2018-05-18T16:54:38.656Z,5.40
2018-05-18T16:57:06.953Z,4.50
2018-05-18T16:59:35.231Z,4.67
2018-05-18T17:02:05.002Z,5.50
2018-05-18T17:04:33.294Z,4.70
2018-05-18T17:07:01.616Z,4.53
2018-05-18T17:09:30.655Z,4.83
2018-05-18T17:11:59.075Z,4.60
2018-05-18T17:14:28.149Z,5.50
2018-05-18T17:16:56.556Z,5.10
2018-05-18T17:19:26.314Z,4.80
2018-05-18T17:21:54.591Z,4.60
2018-05-18T17:24:22.882Z,4.67
2018-05-18T17:26:51.223Z,5.13
2018-05-18T17:29:19.479Z,4.70
2018-05-18T17:31:47.803Z,5.30
2018-05-18T17:34:16.142Z,5.13
2018-05-18T17:36:45.155Z,4.27
2018-05-18T17:39:13.449Z,4.80
2018-05-18T17:41:41.745Z,5.63
2018-05-18T17:44:10.021Z,5.03
2018-05-18T17:46:39.064Z,5.47
2018-05-18T17:49:07.683Z,5.67
2018-05-18T17:51:39.520Z,5.47
2018-05-18T17:54:07.853Z,6.27
2018-05-18T17:56:36.117Z,6.20
2018-05-18T17:59:04.375Z,5.60
2018-05-18T18:01:32.650Z,5.30
2018-05-18T18:04:00.942Z,5.53
2018-05-18T18:06:29.976Z,5.57
2018-05-18T18:08:58.327Z,5.70
2018-05-18T18:11:27.388Z,5.80
2018-05-18T18:13:55.640Z,5.37
2018-05-18T18:16:25.414Z,5.70
2018-05-18T18:18:54.461Z,5.03
2018-05-18T18:21:24.994Z,4.40
2018-05-18T18:23:54.187Z,4.87
2018-05-18T18:26:22.483Z,5.17
2018-05-18T18:28:50.819Z,4.87
2018-05-18T18:31:19.077Z,6.17
2018-05-18T18:33:47.326Z,6.03
2018-05-18T18:36:16.397Z,4.87
2018-05-18T18:38:52.447Z,5.23
2018-05-18T18:41:20.908Z,6.10
2018-05-18T18:43:49.161Z,5.27
2018-05-18T18:46:17.428Z,6.13
2018-05-18T18:48:45.679Z,5.93
2018-05-18T18:51:14.744Z,5.20
2018-05-18T18:53:44.498Z,6.67
2018-05-18T18:56:13.636Z,5.47
2018-05-18T18:58:41.929Z,5.30
2018-05-18T19:01:10.144Z,5.33
2018-05-18T19:03:38.416Z,5.20
2018-05-18T19:06:06.662Z,4.93
2018-05-18T19:08:35.694Z,5.40
2018-05-18T19:11:03.961Z,5.63
2018-05-18T19:13:32.198Z,5.37
2018-05-18T19:16:01.274Z,4.50
2018-05-18T19:18:29.533Z,5.50
2018-05-18T19:20:57.823Z,6.03
2018-05-18T19:23:26.088Z,4.43
2018-05-18T19:25:54.315Z,4.80
2018-05-18T19:28:23.682Z,4.50
2018-05-18T19:30:51.951Z,5.17
2018-05-18T19:33:22.789Z,4.73
2018-05-18T19:35:51.032Z,4.93
2018-05-18T19:38:19.305Z,5.23
2018-05-18T19:40:47.570Z,4.17
2018-05-18T19:43:15.831Z,5.90
2018-05-18T19:45:44.145Z,5.07
2018-05-18T19:48:12.442Z,4.67
2018-05-18T19:50:40.766Z,4.37
2018-05-18T19:53:09.783Z,4.40
2018-05-18T19:55:38.046Z,4.70
2018-05-18T19:58:06.409Z,4.93
2018-05-18T20:00:34.719Z,4.77
2018-05-18T20:03:03.119Z,4.03
2018-05-18T20:05:32.191Z,4.20
2018-05-18T20:08:00.458Z,3.93
2018-05-18T20:10:28.723Z,4.50
2018-05-18T20:12:56.982Z,3.93
2018-05-18T20:15:25.279Z,4.03
2018-05-18T20:17:53.630Z,5.37
2018-05-18T20:20:21.809Z,4.37
2018-05-18T20:22:50.099Z,3.90
2018-05-18T20:25:18.463Z,5.10
2018-05-18T20:27:46.742Z,4.50
2018-05-18T20:30:15.156Z,4.03
2018-05-18T20:32:44.192Z,4.20
2018-05-18T20:35:12.481Z,4.23
2018-05-18T20:37:41.489Z,4.30
2018-05-18T20:40:09.772Z,4.13
2018-05-18T20:42:38.049Z,4.10
2018-05-18T20:45:06.483Z,4.30
2018-05-18T20:47:34.740Z,4.60
2018-05-18T20:50:03.085Z,3.83
2018-05-18T20:52:31.331Z,3.87
2018-05-18T20:54:59.570Z,3.83
2018-05-18T20:57:40.344Z,3.73
2018-05-18T21:00:09.714Z,4.20
2018-05-18T21:02:38.249Z,3.20
2018-05-18T21:05:07.242Z,4.23
2018-05-18T21:07:35.534Z,4.10
2018-05-18T21:10:03.812Z,4.20
2018-05-18T21:12:32.120Z,4.43
2018-05-18T21:15:00.350Z,4.07
2018-05-18T21:17:28.725Z,4.57
2018-05-18T21:19:56.985Z,4.33
2018-05-18T21:22:25.270Z,4.07
2018-05-18T21:24:53.539Z,3.30
2018-05-18T21:27:21.838Z,4.63
2018-05-18T21:29:50.116Z,4.53
2018-05-18T21:32:18.385Z,4.40
2018-05-18T21:34:46.721Z,4.43
2018-05-18T21:37:15.047Z,4.23
2018-05-18T21:39:43.295Z,3.93
2018-05-18T21:42:11.567Z,4.67
2018-05-18T21:44:41.846Z,4.37
2018-05-18T21:47:11.145Z,3.73
2018-05-18T21:49:39.656Z,4.20
2018-05-18T21:52:08.720Z,3.37
2018-05-18T21:54:36.974Z,4.30
2018-05-18T21:57:15.507Z,4.03
2018-05-18T21:59:44.821Z,3.60
2018-05-18T22:02:13.101Z,4.03
2018-05-18T22:04:41.439Z,3.60
2018-05-18T22:07:09.834Z,4.87
2018-05-18T22:09:38.257Z,3.80
2018-05-18T22:12:11.840Z,4.30
2018-05-18T22:14:40.133Z,3.57
2018-05-18T22:17:09.583Z,4.17
2018-05-18T22:19:39.057Z,3.70
2018-05-18T22:22:07.325Z,4.47
2018-05-18T22:24:35.599Z,4.07
2018-05-18T22:27:03.847Z,4.10
2018-05-18T22:29:32.854Z,4.90
2018-05-18T22:32:01.137Z,5.10
2018-05-18T22:34:29.447Z,4.47
2018-05-18T22:37:01.011Z,4.47
2018-05-18T22:39:29.454Z,4.90
2018-05-18T22:41:57.746Z,5.03
2018-05-18T22:44:27.038Z,4.10
2018-05-18T22:46:55.288Z,4.73
2018-05-18T22:49:23.563Z,4.13
2018-05-18T22:51:51.841Z,4.17
2018-05-18T22:54:20.074Z,4.07
2018-05-18T22:56:48.902Z,4.67
2018-05-18T22:59:22.224Z,4.47
2018-05-18T23:01:52.155Z,5.17
2018-05-18T23:04:20.498Z,4.57
2018-05-18T23:06:49.090Z,4.37
2018-05-18T23:09:22.907Z,4.60
2018-05-18T23:11:51.419Z,4.83
2018-05-18T23:14:21.520Z,5.20
2018-05-18T23:16:51.733Z,4.13
2018-05-18T23:19:20.832Z,4.37
2018-05-18T23:21:50.002Z,4.73
2018-05-18T23:24:18.671Z,4.43
2018-05-18T23:26:47.463Z,4.20
2018-05-18T23:29:15.747Z,4.60
2018-05-18T23:31:44.073Z,4.43
2018-05-18T23:34:12.377Z,4.90
2018-05-18T23:36:40.644Z,5.57
2018-05-18T23:39:08.926Z,4.53
2018-05-18T23:41:37.178Z,5.20
2018-05-18T23:44:05.531Z,4.87
2018-05-18T23:46:34.554Z,4.30
2018-05-18T23:49:02.829Z,5.13
2018-05-18T23:51:31.104Z,4.57
2018-05-18T23:53:59.368Z,5.10
2018-05-18T23:56:27.629Z,4.70
2018-05-18T23:58:55.959Z,4.67
